Time;durP1;ratioP1;P1;durP2;ratioP2;P2;SDS_P1;SDS_P2;PMS_P1;PMS_P2;Temp;Humidity;BMP_temperature;BMP_pressure;BME280_temperature;BME280_humidity;BME280_pressure;Samples;Min_cycle;Max_cycle;Signal;HPM_P1;HPM_P2
2022/07/03 00:00:18;;;;;;;0.00;0.00;;;18.80;99.90;;;;;;5062310;28;20024;-84
2022/07/03 00:02:43;;;;;;;0.10;0.10;;;18.80;99.90;;;;;;5060232;28;20516;-84
2022/07/03 00:05:09;;;;;;;0.10;0.10;;;18.80;99.90;;;;;;5059149;28;20032;-84
2022/07/03 00:07:38;;;;;;;0.07;0.07;;;18.80;99.90;;;;;;5060757;28;20025;-84
2022/07/03 00:10:04;;;;;;;0.00;0.00;;;18.70;99.90;;;;;;5062163;28;20044;-84
2022/07/03 00:12:30;;;;;;;0.00;0.00;;;18.70;99.90;;;;;;5060716;28;20029;-84
2022/07/03 00:14:55;;;;;;;3.20;0.83;;;18.60;99.90;;;;;;5060821;28;20028;-84
2022/07/03 00:17:21;;;;;;;0.00;0.00;;;18.60;99.90;;;;;;5057114;28;20123;-85
2022/07/03 00:19:47;;;;;;;0.00;0.00;;;18.60;99.90;;;;;;5061668;28;20055;-84
2022/07/03 00:22:14;;;;;;;0.10;0.10;;;18.70;99.90;;;;;;5061463;28;20067;-83
2022/07/03 00:24:48;;;;;;;0.05;0.05;;;18.70;99.90;;;;;;5061585;28;20411;-84
2022/07/03 00:27:15;;;;;;;0.05;0.05;;;18.70;99.90;;;;;;5059738;28;20025;-83
2022/07/03 00:29:43;;;;;;;0.03;0.03;;;18.70;99.90;;;;;;5061520;28;20047;-82
2022/07/03 00:32:11;;;;;;;0.00;0.00;;;18.60;99.90;;;;;;5060840;28;20035;-82
2022/07/03 00:34:38;;;;;;;0.00;0.00;;;18.70;99.90;;;;;;5060126;28;20070;-82
2022/07/03 00:37:07;;;;;;;0.00;0.00;;;18.60;99.90;;;;;;5060399;28;20031;-83
2022/07/03 00:39:37;;;;;;;0.10;0.10;;;18.50;99.90;;;;;;5060194;28;20040;-83
2022/07/03 00:42:04;;;;;;;0.00;0.00;;;18.20;99.90;;;;;;5062307;28;20039;-82
2022/07/03 00:44:32;;;;;;;1.17;0.30;;;18.10;99.90;;;;;;5061320;28;20040;-83
2022/07/03 00:47:02;;;;;;;0.00;0.00;;;18.10;99.90;;;;;;5059435;28;20043;-83
2022/07/03 00:49:31;;;;;;;0.05;0.05;;;18.00;99.90;;;;;;5060537;28;20032;-83
2022/07/03 00:51:58;;;;;;;0.90;0.73;;;18.00;99.90;;;;;;5060107;28;20024;-82
2022/07/03 00:54:25;;;;;;;0.22;0.22;;;17.90;99.90;;;;;;5061263;28;20052;-82
2022/07/03 00:56:54;;;;;;;0.00;0.00;;;17.90;99.90;;;;;;5063182;28;20075;-83
2022/07/03 00:59:20;;;;;;;0.10;0.10;;;17.90;99.90;;;;;;5062294;28;20028;-83
2022/07/03 01:01:46;;;;;;;0.17;0.17;;;17.80;99.90;;;;;;5059958;28;20144;-83
2022/07/03 01:04:26;;;;;;;0.35;0.20;;;17.80;99.90;;;;;;5059877;28;20685;-83
2022/07/03 01:07:05;;;;;;;0.10;0.10;;;17.90;99.90;;;;;;5059717;28;20043;-82
2022/07/03 01:09:52;;;;;;;0.10;0.10;;;17.90;99.90;;;;;;5059951;28;20115;-82
2022/07/03 01:12:37;;;;;;;0.20;0.20;;;17.80;99.90;;;;;;5056074;28;20028;-82
2022/07/03 01:15:23;;;;;;;0.15;0.15;;;17.80;99.90;;;;;;5061029;28;20139;-83
2022/07/03 01:18:13;;;;;;;0.00;0.00;;;17.70;99.90;;;;;;5058593;28;20074;-82
2022/07/03 01:20:44;;;;;;;0.13;0.13;;;17.70;99.90;;;;;;5062462;28;20040;-82
2022/07/03 01:23:32;;;;;;;0.10;0.10;;;17.60;99.90;;;;;;5060721;28;20063;-83
2022/07/03 01:26:04;;;;;;;0.00;0.00;;;17.60;99.90;;;;;;5061296;28;20052;-84
2022/07/03 01:28:32;;;;;;;0.10;0.10;;;17.50;99.90;;;;;;5060929;28;20035;-83
2022/07/03 01:31:00;;;;;;;1.55;0.98;;;17.50;99.90;;;;;;5061211;28;20025;-82
2022/07/03 01:33:30;;;;;;;0.00;0.00;;;17.40;99.90;;;;;;5059803;28;20021;-83
2022/07/03 01:36:04;;;;;;;0.10;0.10;;;17.40;99.90;;;;;;5061048;28;20039;-83
2022/07/03 01:38:33;;;;;;;0.10;0.10;;;17.40;99.90;;;;;;5062665;28;20115;-83
2022/07/03 01:41:02;;;;;;;0.00;0.00;;;17.40;99.90;;;;;;5059710;28;20028;-83
2022/07/03 01:43:33;;;;;;;0.10;0.10;;;17.40;99.90;;;;;;5061507;28;20040;-83
2022/07/03 01:46:01;;;;;;;0.10;0.10;;;17.30;99.90;;;;;;5057112;28;20151;-81
2022/07/03 01:48:29;;;;;;;0.10;0.10;;;17.30;99.90;;;;;;5058951;28;20500;-81
2022/07/03 01:50:58;;;;;;;0.10;0.10;;;17.20;99.90;;;;;;5061875;28;20051;-83
2022/07/03 01:53:29;;;;;;;0.10;0.10;;;17.20;99.90;;;;;;5061749;28;20116;-82
2022/07/03 01:56:03;;;;;;;0.00;0.00;;;17.20;99.90;;;;;;5060696;28;20123;-82
2022/07/03 01:58:29;;;;;;;2.40;0.82;;;17.10;99.90;;;;;;5060036;28;20391;-83
2022/07/03 02:01:16;;;;;;;0.10;0.10;;;17.10;99.90;;;;;;5060229;28;20036;-89
2022/07/03 02:04:02;;;;;;;0.22;0.22;;;17.10;99.90;;;;;;5062505;28;20033;-89
2022/07/03 02:06:43;;;;;;;0.15;0.10;;;17.10;99.90;;;;;;5063692;28;20396;-89
2022/07/03 02:09:11;;;;;;;0.10;0.10;;;17.00;99.90;;;;;;5063924;28;20035;-89
2022/07/03 02:11:39;;;;;;;0.05;0.05;;;16.90;99.90;;;;;;5064373;28;20059;-89
2022/07/03 02:14:31;;;;;;;0.50;0.50;;;16.90;99.90;;;;;;5063396;28;20036;-90
2022/07/03 02:17:09;;;;;;;0.03;0.03;;;17.00;99.90;;;;;;5063188;28;20012;-91
2022/07/03 02:19:55;;;;;;;0.20;0.20;;;17.00;99.90;;;;;;5064006;28;20048;-90
2022/07/03 02:22:31;;;;;;;0.10;0.10;;;16.90;99.90;;;;;;5056783;28;20035;-91
2022/07/03 02:25:06;;;;;;;0.10;0.10;;;16.90;99.90;;;;;;5065013;28;20041;-92
2022/07/03 02:27:42;;;;;;;0.32;0.32;;;16.90;99.90;;;;;;5064170;28;20326;-90
2022/07/03 02:30:09;;;;;;;0.00;0.00;;;16.90;99.90;;;;;;5075869;28;20036;-92
2022/07/03 02:32:45;;;;;;;0.10;0.10;;;16.80;99.90;;;;;;5066956;28;20025;-92
2022/07/03 02:35:17;;;;;;;0.00;0.00;;;16.80;99.90;;;;;;5066831;28;20053;-92
2022/07/03 02:37:53;;;;;;;0.00;0.00;;;16.80;99.90;;;;;;5062778;28;20025;-91
2022/07/03 02:40:40;;;;;;;0.20;0.20;;;16.80;99.90;;;;;;5057181;28;20035;-90
2022/07/03 02:43:11;;;;;;;0.10;0.10;;;16.80;99.90;;;;;;5061243;28;20052;-90
2022/07/03 02:45:55;;;;;;;0.10;0.10;;;16.70;99.90;;;;;;5061142;28;20446;-87
2022/07/03 02:48:39;;;;;;;0.10;0.10;;;16.80;99.90;;;;;;5075569;28;20408;-88
2022/07/03 02:51:10;;;;;;;0.17;0.17;;;16.80;99.90;;;;;;5060483;28;20040;-88
2022/07/03 02:53:44;;;;;;;0.15;0.15;;;16.80;99.90;;;;;;5062551;28;20103;-88
2022/07/03 02:56:42;;;;;;;0.10;0.10;;;16.90;99.90;;;;;;5061186;28;20205;-88
2022/07/03 02:59:17;;;;;;;0.10;0.10;;;16.90;99.90;;;;;;5057012;28;20036;-86
2022/07/03 03:01:56;;;;;;;0.10;0.10;;;16.80;99.90;;;;;;5055306;28;20037;-86
2022/07/03 03:04:30;;;;;;;0.10;0.10;;;16.70;99.90;;;;;;5060192;28;20128;-87
2022/07/03 03:07:06;;;;;;;0.00;0.00;;;16.60;99.90;;;;;;5053852;28;20063;-86
2022/07/03 03:09:40;;;;;;;0.10;0.10;;;16.80;99.90;;;;;;5062670;28;20028;-87
2022/07/03 03:12:07;;;;;;;0.10;0.10;;;16.70;99.90;;;;;;5063289;28;20065;-85
2022/07/03 03:14:44;;;;;;;0.00;0.00;;;16.70;99.90;;;;;;5065154;28;20745;-85
2022/07/03 03:17:15;;;;;;;;;;;16.80;99.90;;;;;;5063727;28;20398;-85
2022/07/03 03:19:51;;;;;;;0.00;0.00;;;16.80;99.90;;;;;;5061164;28;19924;-85
2022/07/03 03:22:32;;;;;;;0.00;0.00;;;16.70;99.90;;;;;;5061672;28;20099;-86
2022/07/03 03:24:58;;;;;;;3.35;0.45;;;16.90;99.90;;;;;;5060915;28;20559;-86
2022/07/03 03:27:24;;;;;;;0.10;0.10;;;16.70;99.90;;;;;;5064152;28;20120;-85
2022/07/03 03:29:50;;;;;;;0.05;0.05;;;16.60;99.90;;;;;;5064686;28;20033;-87
2022/07/03 03:32:16;;;;;;;0.10;0.10;;;16.40;99.90;;;;;;5064763;28;20073;-87
2022/07/03 03:34:45;;;;;;;0.00;0.00;;;16.40;99.90;;;;;;5063452;28;20066;-87
2022/07/03 03:37:11;;;;;;;0.00;0.00;;;16.50;99.90;;;;;;5062938;28;20121;-87
2022/07/03 03:39:37;;;;;;;2.63;0.93;;;16.40;99.90;;;;;;5061255;28;20059;-86
2022/07/03 03:42:04;;;;;;;0.00;0.00;;;16.40;99.90;;;;;;5063522;28;20060;-87
2022/07/03 03:44:29;;;;;;;;;;;16.30;99.90;;;;;;5065823;28;20757;-90
2022/07/03 03:46:55;;;;;;;0.10;0.10;;;16.40;99.90;;;;;;5069699;28;19919;-90
2022/07/03 03:49:21;;;;;;;0.00;0.00;;;16.40;99.90;;;;;;5064414;28;20104;-91
2022/07/03 03:51:47;;;;;;;0.05;0.05;;;16.40;99.90;;;;;;5061194;28;20032;-86
2022/07/03 03:54:13;;;;;;;0.10;0.10;;;16.40;99.90;;;;;;5065874;28;20040;-89
2022/07/03 03:56:39;;;;;;;0.23;0.23;;;16.40;99.90;;;;;;5067975;28;20781;-90
2022/07/03 03:59:04;;;;;;;0.20;0.20;;;16.40;99.90;;;;;;5066497;28;20035;-90
2022/07/03 04:01:30;;;;;;;0.50;0.50;;;16.40;99.90;;;;;;5064159;28;20484;-94
2022/07/03 04:03:56;;;;;;;0.00;0.00;;;16.40;99.90;;;;;;5073312;28;20045;-93
2022/07/03 04:06:21;;;;;;;0.10;0.10;;;16.40;99.90;;;;;;5069317;28;20488;-95
2022/07/03 04:08:47;;;;;;;0.10;0.10;;;16.40;99.90;;;;;;5067045;28;20086;-85
2022/07/03 04:11:12;;;;;;;0.10;0.10;;;16.30;99.90;;;;;;5063019;28;20127;-83
2022/07/03 04:13:38;;;;;;;0.40;0.20;;;16.30;99.90;;;;;;5063913;28;20131;-92
2022/07/03 04:16:04;;;;;;;0.10;0.10;;;16.30;99.90;;;;;;5067240;28;20471;-93
2022/07/03 04:18:30;;;;;;;0.10;0.10;;;16.30;99.90;;;;;;5069354;28;20098;-93
2022/07/03 04:20:58;;;;;;;0.00;0.00;;;16.30;99.90;;;;;;5070298;28;20035;-94
2022/07/03 04:23:24;;;;;;;0.00;0.00;;;16.30;99.90;;;;;;5069969;28;20518;-93
2022/07/03 04:25:49;;;;;;;0.10;0.10;;;16.40;99.90;;;;;;5068946;28;20025;-91
2022/07/03 04:28:15;;;;;;;0.00;0.00;;;16.60;99.90;;;;;;5067201;28;20025;-91
2022/07/03 04:30:41;;;;;;;0.13;0.13;;;16.50;99.90;;;;;;5065035;28;20068;-90
2022/07/03 04:33:07;;;;;;;0.10;0.10;;;16.60;99.90;;;;;;5065198;28;20032;-90
2022/07/03 04:35:32;;;;;;;0.10;0.10;;;16.50;99.90;;;;;;5066036;28;20117;-93
2022/07/03 04:37:58;;;;;;;1.77;0.80;;;16.40;99.90;;;;;;5067117;28;20407;-93
2022/07/03 04:40:24;;;;;;;0.10;0.10;;;16.40;99.90;;;;;;5067617;28;20021;-93
2022/07/03 04:42:50;;;;;;;4.53;1.48;;;16.30;99.90;;;;;;5066634;28;20154;-93
2022/07/03 04:45:15;;;;;;;0.10;0.10;;;16.30;99.90;;;;;;5067623;28;20025;-93
2022/07/03 04:47:41;;;;;;;0.00;0.00;;;16.30;99.90;;;;;;5064728;28;20492;-89
2022/07/03 04:50:07;;;;;;;0.10;0.10;;;16.30;99.90;;;;;;5065166;28;20444;-89
2022/07/03 04:52:33;;;;;;;0.00;0.00;;;16.30;99.90;;;;;;5065486;28;20272;-90
2022/07/03 04:54:58;;;;;;;0.20;0.20;;;16.40;99.90;;;;;;5061576;28;20029;-92
2022/07/03 04:57:24;;;;;;;0.03;0.03;;;16.40;99.90;;;;;;5064215;28;20853;-90
2022/07/03 04:59:50;;;;;;;0.00;0.00;;;16.30;99.90;;;;;;5072284;28;20092;-91
2022/07/03 05:02:15;;;;;;;0.07;0.07;;;16.20;99.90;;;;;;5077903;28;20458;-91
2022/07/03 05:04:41;;;;;;;0.10;0.10;;;16.20;99.90;;;;;;5067731;28;20059;-90
2022/07/03 05:07:07;;;;;;;17.63;1.70;;;16.10;99.90;;;;;;5063509;28;20035;-92
2022/07/03 05:09:33;;;;;;;0.07;0.07;;;16.10;99.90;;;;;;5065566;28;20028;-91
2022/07/03 05:11:59;;;;;;;0.03;0.03;;;16.10;99.90;;;;;;5068436;28;20143;-88
2022/07/03 05:14:24;;;;;;;2.90;1.02;;;16.10;99.90;;;;;;5063688;28;20144;-87
2022/07/03 05:16:50;;;;;;;0.20;0.17;;;16.20;99.90;;;;;;5060813;28;20464;-89
2022/07/03 05:19:15;;;;;;;0.10;0.10;;;16.30;99.90;;;;;;5059874;28;20056;-87
2022/07/03 05:21:41;;;;;;;0.10;0.10;;;16.90;99.90;;;;;;5060956;28;20039;-87
2022/07/03 05:24:07;;;;;;;0.00;0.00;;;17.90;99.90;;;;;;5059508;28;20036;-87
2022/07/03 05:26:33;;;;;;;0.10;0.10;;;17.90;99.90;;;;;;5061544;28;20078;-87
2022/07/03 05:28:58;;;;;;;0.00;0.00;;;17.70;99.90;;;;;;5056534;28;20039;-85
2022/07/03 05:31:24;;;;;;;0.00;0.00;;;19.00;99.90;;;;;;5060805;28;20194;-87
2022/07/03 05:33:50;;;;;;;0.00;0.00;;;19.50;99.90;;;;;;5064404;28;20113;-89
2022/07/03 05:36:15;;;;;;;0.03;0.03;;;19.90;99.90;;;;;;5060414;28;20035;-89
2022/07/03 05:41:25;;;;;;;0.20;0.10;;;20.30;99.90;;;;;;5061438;28;20916;-88
2022/07/03 05:43:51;;;;;;;0.10;0.10;;;20.20;99.90;;;;;;5061284;28;20044;-89
2022/07/03 05:46:17;;;;;;;11.13;1.30;;;20.60;99.90;;;;;;5062162;28;20104;-95
2022/07/03 05:48:43;;;;;;;0.43;0.43;;;21.00;99.90;;;;;;5064787;28;20687;-92
2022/07/03 05:51:08;;;;;;;0.10;0.10;;;21.00;99.90;;;;;;5062311;28;20032;-85
2022/07/03 05:53:34;;;;;;;0.00;0.00;;;20.40;99.90;;;;;;5060732;28;20043;-85
2022/07/03 05:56:00;;;;;;;0.30;0.30;;;19.00;99.90;;;;;;5060275;28;20081;-85
2022/07/03 05:58:25;;;;;;;0.00;0.00;;;18.40;99.90;;;;;;5060544;28;20430;-85
2022/07/03 06:00:51;;;;;;;0.23;0.23;;;18.10;99.90;;;;;;5059939;28;20088;-87
2022/07/03 06:03:17;;;;;;;0.00;0.00;;;17.90;99.90;;;;;;5055777;28;20066;-86
2022/07/03 06:05:43;;;;;;;0.10;0.10;;;17.90;99.90;;;;;;5062059;28;20036;-86
2022/07/03 06:08:08;;;;;;;0.00;0.00;;;21.60;99.90;;;;;;5059268;28;20029;-90
2022/07/03 06:10:34;;;;;;;0.00;0.00;;;22.90;98.40;;;;;;5061748;28;20039;-84
2022/07/03 06:13:00;;;;;;;0.00;0.00;;;23.70;92.80;;;;;;5064370;28;20033;-91
2022/07/03 06:15:26;;;;;;;0.00;0.00;;;24.00;90.10;;;;;;5061508;28;20040;-86
2022/07/03 06:17:52;;;;;;;0.00;0.00;;;24.70;82.20;;;;;;5062021;28;20396;-92
2022/07/03 06:20:18;;;;;;;0.00;0.00;;;24.80;82.40;;;;;;5059646;28;20131;-84
2022/07/03 06:22:45;;;;;;;0.00;0.00;;;24.90;81.30;;;;;;5059524;28;20854;-86
2022/07/03 06:25:11;;;;;;;0.52;0.30;;;25.20;76.40;;;;;;5064808;28;20045;-86
2022/07/03 06:27:37;;;;;;;0.00;0.00;;;25.30;76.80;;;;;;5058455;28;20873;-84
2022/07/03 06:30:04;;;;;;;0.05;0.05;;;25.70;75.90;;;;;;5060900;28;20034;-84
2022/07/03 06:32:30;;;;;;;0.00;0.00;;;26.20;74.60;;;;;;5060658;28;20028;-81
2022/07/03 06:34:56;;;;;;;0.00;0.00;;;26.10;74.60;;;;;;5056478;28;20028;-83
2022/07/03 06:37:22;;;;;;;0.00;0.00;;;26.80;70.20;;;;;;5055521;28;20033;-82
2022/07/03 06:39:48;;;;;;;0.00;0.00;;;27.80;68.90;;;;;;5058293;28;20032;-83
2022/07/03 06:42:14;;;;;;;0.08;0.08;;;26.30;68.20;;;;;;5058409;28;20029;-82
2022/07/03 06:44:40;;;;;;;0.00;0.00;;;25.50;71.10;;;;;;5063658;28;20059;-83
2022/07/03 06:47:07;;;;;;;0.00;0.00;;;26.40;70.90;;;;;;5062405;28;20027;-83
2022/07/03 06:49:33;;;;;;;;;;;26.80;69.00;;;;;;5065106;28;20454;-82
2022/07/03 06:51:59;;;;;;;0.15;0.10;;;23.50;79.90;;;;;;5061756;28;20456;-82
2022/07/03 06:54:25;;;;;;;0.45;0.43;;;22.50;88.60;;;;;;5061400;28;20037;-82
2022/07/03 06:56:51;;;;;;;0.10;0.10;;;22.00;91.00;;;;;;5064546;28;20035;-83
2022/07/03 06:59:17;;;;;;;0.10;0.10;;;26.20;75.70;;;;;;5061967;28;20028;-83
2022/07/03 07:01:42;;;;;;;0.25;0.10;;;27.90;68.40;;;;;;5064399;28;20064;-83
2022/07/03 07:04:08;;;;;;;0.00;0.00;;;28.70;67.90;;;;;;5063542;28;20499;-82
2022/07/03 07:06:34;;;;;;;0.00;0.00;;;28.20;63.80;;;;;;5061244;28;20407;-83
2022/07/03 07:08:59;;;;;;;2.53;0.85;;;28.50;63.50;;;;;;5064330;28;20028;-83
2022/07/03 07:11:25;;;;;;;0.00;0.00;;;28.80;62.40;;;;;;5062893;28;20094;-83
2022/07/03 07:13:51;;;;;;;0.00;0.00;;;29.30;62.80;;;;;;5063128;28;20039;-83
2022/07/03 07:16:17;;;;;;;0.00;0.00;;;29.50;64.30;;;;;;5060767;28;20046;-83
2022/07/03 07:18:42;;;;;;;;;;;29.10;62.90;;;;;;5062745;28;20052;-83
2022/07/03 07:21:09;;;;;;;0.00;0.00;;;30.10;61.70;;;;;;5063097;28;19915;-83
2022/07/03 07:23:35;;;;;;;0.00;0.00;;;28.70;64.30;;;;;;5063448;28;20028;-83
2022/07/03 07:26:00;;;;;;;0.52;0.52;;;28.10;63.80;;;;;;5062195;28;20044;-83
2022/07/03 07:28:26;;;;;;;1.13;0.20;;;26.50;68.30;;;;;;5061434;28;20492;-83
2022/07/03 07:30:55;;;;;;;0.10;0.10;;;25.20;73.30;;;;;;5061419;28;20415;-83
2022/07/03 07:33:21;;;;;;;0.10;0.10;;;25.50;73.90;;;;;;5056974;28;20078;-83
2022/07/03 07:35:46;;;;;;;;;;;28.70;67.10;;;;;;5061166;28;20025;-83
2022/07/03 07:38:12;;;;;;;0.00;0.00;;;30.60;62.10;;;;;;5062440;28;19913;-83
2022/07/03 07:40:38;;;;;;;;;;;30.20;60.00;;;;;;5061523;28;20510;-83
2022/07/03 07:43:04;;;;;;;0.00;0.00;;;30.20;58.40;;;;;;5061823;28;20007;-83
2022/07/03 07:45:29;;;;;;;0.15;0.10;;;26.90;64.70;;;;;;5060944;28;20078;-83
2022/07/03 07:47:55;;;;;;;0.10;0.10;;;26.30;67.50;;;;;;5063752;28;20051;-83
2022/07/03 07:50:21;;;;;;;0.00;0.00;;;27.20;67.90;;;;;;5064497;28;20145;-83
2022/07/03 07:52:46;;;;;;;0.05;0.05;;;30.90;59.90;;;;;;5061087;28;20082;-83
2022/07/03 07:55:12;;;;;;;;;;;30.00;60.10;;;;;;5060055;28;20036;-85
2022/07/03 07:57:39;;;;;;;0.00;0.00;;;29.60;60.70;;;;;;5061588;28;19947;-88
2022/07/03 08:00:17;;;;;;;0.52;0.28;;;31.80;58.30;;;;;;5061831;28;20036;-84
2022/07/03 08:05:36;;;;;;;;;;;32.50;54.60;;;;;;5060966;28;20071;-84
2022/07/03 08:08:16;;;;;;;0.40;0.30;;;32.30;56.40;;;;;;5059144;28;19912;-83
2022/07/03 08:10:49;;;;;;;0.00;0.00;;;33.40;54.10;;;;;;5058399;28;20060;-92
2022/07/03 08:13:17;;;;;;;0.30;0.30;;;34.40;53.30;;;;;;5061521;28;20131;-83
2022/07/03 08:15:43;;;;;;;0.00;0.00;;;33.80;53.90;;;;;;5057263;28;20036;-88
2022/07/03 08:18:09;;;;;;;0.00;0.00;;;34.70;52.20;;;;;;5055669;28;20027;-89
2022/07/03 08:20:36;;;;;;;0.00;0.00;;;34.30;54.10;;;;;;5052724;28;20041;-89
2022/07/03 08:23:03;;;;;;;0.00;0.00;;;33.50;52.20;;;;;;5049348;28;20036;-88
2022/07/03 08:25:29;;;;;;;0.00;0.00;;;35.00;53.80;;;;;;5046140;28;20439;-88
2022/07/03 08:27:56;;;;;;;0.00;0.00;;;35.80;50.90;;;;;;5046824;28;20064;-89
2022/07/03 08:30:22;;;;;;;0.00;0.00;;;33.70;53.80;;;;;;5046873;28;20028;-88
2022/07/03 08:32:50;;;;;;;0.00;0.00;;;34.30;55.70;;;;;;5054312;28;20032;-87
2022/07/03 08:35:16;;;;;;;0.00;0.00;;;35.50;52.30;;;;;;5053443;28;20111;-86
2022/07/03 08:37:43;;;;;;;3.97;0.30;;;35.00;51.00;;;;;;5048433;28;20036;-89
2022/07/03 08:40:10;;;;;;;0.10;0.10;;;34.10;56.10;;;;;;5058198;28;20167;-89
2022/07/03 08:42:47;;;;;;;0.00;0.00;;;35.40;51.90;;;;;;5049219;28;20131;-89
2022/07/03 08:45:17;;;;;;;0.00;0.00;;;36.20;52.00;;;;;;5061050;28;20033;-95
2022/07/03 08:47:44;;;;;;;0.10;0.10;;;37.00;49.60;;;;;;5066736;28;20621;-94
2022/07/03 08:50:17;;;;;;;0.03;0.00;;;36.60;48.90;;;;;;5066698;28;20075;-96
2022/07/03 08:52:43;;;;;;;0.22;0.10;;;34.30;52.20;;;;;;5071334;28;20043;-95
2022/07/03 08:55:10;;;;;;;0.10;0.00;;;33.30;53.90;;;;;;5071543;28;20032;-95
2022/07/03 08:57:37;;;;;;;0.20;0.13;;;36.20;51.80;;;;;;5067136;28;20448;-93
2022/07/03 09:00:07;;;;;;;0.00;0.00;;;35.10;51.90;;;;;;5064370;28;20032;-82
2022/07/03 09:02:33;;;;;;;0.00;0.00;;;36.10;51.70;;;;;;5055494;28;20078;-82
2022/07/03 09:05:01;;;;;;;8.00;0.63;;;37.20;50.40;;;;;;5055535;28;20064;-83
2022/07/03 09:07:31;;;;;;;0.00;0.00;;;38.20;48.70;;;;;;5059689;28;20024;-84
2022/07/03 09:09:56;;;;;;;0.00;0.00;;;38.30;48.90;;;;;;5060039;28;20518;-82
2022/07/03 09:12:22;;;;;;;0.00;0.00;;;37.80;49.40;;;;;;5060541;28;20024;-81
2022/07/03 09:14:48;;;;;;;0.00;0.00;;;38.00;50.20;;;;;;5061691;28;20407;-82
2022/07/03 09:17:15;;;;;;;0.00;0.00;;;39.00;50.40;;;;;;5059033;28;20031;-82
2022/07/03 09:19:47;;;;;;;0.00;0.00;;;39.60;47.50;;;;;;5060441;28;20538;-82
2022/07/03 09:22:24;;;;;;;0.00;0.00;;;39.10;48.00;;;;;;5058674;28;20116;-82
2022/07/03 09:24:53;;;;;;;0.00;0.00;;;39.10;47.90;;;;;;5061148;28;20040;-83
2022/07/03 09:27:23;;;;;;;0.10;0.00;;;38.90;49.60;;;;;;5058604;28;20086;-82
2022/07/03 09:29:59;;;;;;;0.05;0.00;;;39.60;48.40;;;;;;5061796;28;20115;-81
2022/07/03 09:32:25;;;;;;;0.00;0.00;;;38.90;46.20;;;;;;5058605;28;20036;-81
2022/07/03 09:35:09;;;;;;;0.00;0.00;;;38.70;48.10;;;;;;5056575;28;20028;-82
2022/07/03 09:37:36;;;;;;;0.00;0.00;;;39.50;49.00;;;;;;5058096;28;20032;-82
2022/07/03 09:40:02;;;;;;;0.00;0.00;;;39.10;48.90;;;;;;5052474;28;20486;-82
2022/07/03 09:42:28;;;;;;;0.00;0.00;;;39.70;48.50;;;;;;5057759;28;20060;-82
2022/07/03 09:44:54;;;;;;;10.13;1.13;;;40.50;48.10;;;;;;5061726;28;20468;-82
2022/07/03 09:47:23;;;;;;;0.08;0.08;;;40.60;47.10;;;;;;5059335;28;22062;-82
2022/07/03 09:49:56;;;;;;;0.17;0.10;;;40.20;46.20;;;;;;5057790;28;20488;-82
2022/07/03 09:52:54;;;;;;;0.00;0.00;;;40.10;46.90;;;;;;5059036;28;20033;-82
2022/07/03 09:55:20;;;;;;;0.00;0.00;;;40.30;47.60;;;;;;5057785;28;20522;-82
2022/07/03 09:57:59;;;;;;;0.00;0.00;;;39.70;46.90;;;;;;5057323;28;20071;-82
2022/07/03 10:00:26;;;;;;;0.08;0.08;;;39.60;44.70;;;;;;5053478;28;20089;-81
2022/07/03 10:02:56;;;;;;;0.00;0.00;;;38.40;45.90;;;;;;5056415;28;20457;-81
2022/07/03 10:05:26;;;;;;;0.00;0.00;;;37.20;49.00;;;;;;5059102;28;20048;-82
2022/07/03 10:08:00;;;;;;;0.00;0.00;;;38.90;48.70;;;;;;5059912;28;20028;-81
2022/07/03 10:10:29;;;;;;;0.00;0.00;;;39.50;48.30;;;;;;5057755;28;20035;-82
2022/07/03 10:12:56;;;;;;;0.00;0.00;;;39.00;45.90;;;;;;5057943;28;20098;-81
2022/07/03 10:15:23;;;;;;;0.00;0.00;;;38.10;48.20;;;;;;5059150;28;20028;-81
2022/07/03 10:17:52;;;;;;;0.00;0.00;;;37.40;49.80;;;;;;5060082;28;20208;-81
2022/07/03 10:20:23;;;;;;;0.10;0.10;;;37.80;50.90;;;;;;5061839;28;20072;-81
2022/07/03 10:22:50;;;;;;;9.02;0.85;;;39.00;48.90;;;;;;5060584;28;20067;-81
2022/07/03 10:25:17;;;;;;;0.00;0.00;;;39.10;48.90;;;;;;5061964;28;20121;-82
2022/07/03 10:27:45;;;;;;;0.00;0.00;;;38.20;49.10;;;;;;5062881;28;20037;-81
2022/07/03 10:30:14;;;;;;;0.10;0.10;;;38.80;47.70;;;;;;5062831;28;20033;-82
2022/07/03 10:32:41;;;;;;;0.47;0.47;;;38.60;46.70;;;;;;5066327;28;20025;-81
2022/07/03 10:35:08;;;;;;;0.00;0.00;;;38.30;48.30;;;;;;5064293;28;20158;-83
2022/07/03 10:37:45;;;;;;;0.08;0.08;;;39.00;47.30;;;;;;5062520;28;20495;-83
2022/07/03 10:46:13;;;;;;;0.00;0.00;;;36.30;48.50;;;;;;5064147;28;20547;-83
2022/07/03 10:49:02;;;;;;;;;;;33.60;52.90;;;;;;5062170;28;20039;-83
2022/07/03 10:51:52;;;;;;;0.28;0.15;;;34.00;52.70;;;;;;5061535;28;20386;-83
2022/07/03 10:54:24;;;;;;;0.00;0.00;;;33.70;52.30;;;;;;5062950;28;20058;-85
2022/07/03 10:57:00;;;;;;;0.00;0.00;;;33.80;52.60;;;;;;5060273;28;20025;-81
2022/07/03 10:59:31;;;;;;;0.10;0.10;;;33.30;52.50;;;;;;5060398;28;20050;-84
2022/07/03 11:02:22;;;;;;;0.10;0.10;;;32.60;52.50;;;;;;5046979;28;20056;-83
2022/07/03 11:05:14;;;;;;;1.52;0.57;;;32.40;54.00;;;;;;5066897;28;20751;-84
2022/07/03 11:07:55;;;;;;;0.10;0.10;;;32.10;50.00;;;;;;5053078;28;20045;-84
2022/07/03 11:10:23;;;;;;;0.00;0.00;;;31.30;54.30;;;;;;5061441;28;20029;-82
2022/07/03 11:13:09;;;;;;;0.10;0.10;;;31.10;55.30;;;;;;5066028;28;20032;-81
2022/07/03 11:15:53;;;;;;;;;;;31.60;54.00;;;;;;5060815;28;20025;-82
2022/07/03 11:18:34;;;;;;;0.28;0.20;;;31.10;55.30;;;;;;5062186;28;19952;-83
2022/07/03 11:21:06;;;;;;;0.00;0.00;;;30.90;55.20;;;;;;5063337;28;20032;-82
2022/07/03 11:23:45;;;;;;;0.05;0.05;;;31.10;56.70;;;;;;5062111;28;20573;-82
2022/07/03 11:26:10;;;;;;;1.77;0.80;;;30.80;58.00;;;;;;5061673;28;20803;-82
2022/07/03 11:28:36;;;;;;;0.05;0.05;;;31.10;56.30;;;;;;5063786;28;20032;-82
2022/07/03 11:31:11;;;;;;;2.45;0.90;;;30.70;56.40;;;;;;5062225;28;20590;-83
2022/07/03 11:33:51;;;;;;;0.10;0.10;;;30.60;56.40;;;;;;5062710;28;20046;-82
2022/07/03 11:36:17;;;;;;;0.00;0.00;;;30.50;57.90;;;;;;5061363;28;20109;-83
2022/07/03 11:38:52;;;;;;;0.30;0.20;;;30.50;56.60;;;;;;5063352;28;20123;-82
2022/07/03 11:41:18;;;;;;;0.00;0.00;;;30.30;58.80;;;;;;5061020;28;21203;-82
2022/07/03 11:43:53;;;;;;;0.00;0.00;;;30.10;59.80;;;;;;5059918;28;20638;-82
2022/07/03 11:46:23;;;;;;;0.10;0.10;;;30.00;60.30;;;;;;5054960;28;20511;-83
2022/07/03 11:48:50;;;;;;;0.00;0.00;;;30.00;62.60;;;;;;5051322;28;20025;-83
2022/07/03 11:51:16;;;;;;;0.28;0.20;;;30.10;61.30;;;;;;5046040;28;20025;-82
2022/07/03 11:53:42;;;;;;;0.10;0.00;;;29.70;63.40;;;;;;5050608;28;20072;-82
2022/07/03 11:56:09;;;;;;;0.00;0.00;;;30.00;64.00;;;;;;5050426;28;20475;-82
2022/07/03 11:58:49;;;;;;;0.00;0.00;;;29.90;62.30;;;;;;5058297;28;20115;-83
2022/07/03 12:01:27;;;;;;;1.17;0.47;;;29.80;64.90;;;;;;5068404;28;20539;-83
2022/07/03 12:04:09;;;;;;;0.00;0.00;;;29.80;66.00;;;;;;5048286;28;20576;-83
2022/07/03 12:06:36;;;;;;;0.00;0.00;;;29.80;67.50;;;;;;5051340;28;20024;-82
2022/07/03 12:09:11;;;;;;;0.20;0.20;;;29.60;65.50;;;;;;5050117;28;20033;-91
2022/07/03 12:11:36;;;;;;;0.28;0.10;;;29.70;65.70;;;;;;5055280;28;20036;-85
2022/07/03 12:14:02;;;;;;;0.00;0.00;;;29.70;68.10;;;;;;5058095;28;20029;-87
2022/07/03 12:16:34;;;;;;;0.00;0.00;;;29.80;68.70;;;;;;5057444;28;20029;-88
2022/07/03 12:19:06;;;;;;;0.10;0.10;;;29.50;67.70;;;;;;5059417;28;20352;-86
2022/07/03 12:21:39;;;;;;;0.00;0.00;;;29.40;68.40;;;;;;5059338;28;20104;-87
2022/07/03 12:24:13;;;;;;;0.13;0.00;;;29.50;70.00;;;;;;5061286;28;20115;-86
2022/07/03 12:26:39;;;;;;;0.10;0.10;;;29.40;67.80;;;;;;5061251;28;20032;-87
2022/07/03 12:29:15;;;;;;;0.00;0.00;;;29.60;70.50;;;;;;5059756;28;20032;-87
2022/07/03 12:31:46;;;;;;;0.00;0.00;;;29.50;69.20;;;;;;5060870;28;20103;-86
2022/07/03 12:34:13;;;;;;;0.10;0.10;;;29.50;67.80;;;;;;5061752;28;20029;-86
2022/07/03 12:36:40;;;;;;;0.20;0.08;;;29.60;69.30;;;;;;5059548;28;20032;-86
2022/07/03 12:39:06;;;;;;;0.03;0.03;;;29.30;64.20;;;;;;5061539;28;20555;-86
2022/07/03 12:41:32;;;;;;;0.00;0.00;;;29.10;67.10;;;;;;5052666;28;20043;-86
2022/07/03 12:43:59;;;;;;;0.52;0.20;;;29.30;67.40;;;;;;5048354;28;20095;-87
2022/07/03 12:46:28;;;;;;;0.00;0.00;;;29.40;69.50;;;;;;5056237;28;20057;-86
2022/07/03 12:48:56;;;;;;;0.30;0.15;;;29.30;68.90;;;;;;5051952;28;20048;-86
2022/07/03 12:51:39;;;;;;;0.47;0.30;;;29.10;68.30;;;;;;5060565;28;20080;-86
2022/07/03 12:54:33;;;;;;;0.00;0.00;;;29.20;67.00;;;;;;5058711;28;20025;-86
2022/07/03 13:00:06;;;;;;;0.10;0.10;;;29.10;65.30;;;;;;5060724;28;20039;-85
2022/07/03 13:02:32;;;;;;;;;;;29.10;68.80;;;;;;5059913;28;20078;-86
2022/07/03 13:04:59;;;;;;;0.00;0.00;;;29.00;69.20;;;;;;5056993;28;19978;-86
2022/07/03 13:07:31;;;;;;;0.10;0.10;;;29.00;65.60;;;;;;5056553;28;20024;-86
2022/07/03 13:10:03;;;;;;;0.17;0.10;;;29.00;66.30;;;;;;5059310;28;20028;-87
2022/07/03 13:12:29;;;;;;;0.10;0.10;;;28.80;62.60;;;;;;5060863;28;20115;-86
2022/07/03 13:14:56;;;;;;;0.10;0.10;;;28.50;62.30;;;;;;5062436;28;20093;-87
2022/07/03 13:17:22;;;;;;;0.08;0.08;;;28.60;63.30;;;;;;5060590;28;20279;-87